createdAt,value
2023-02-20T00:01:56.488Z,160126.59
2023-02-20T00:05:00.405Z,160086.13
2023-02-20T00:08:04.923Z,160030.03
2023-02-20T00:11:09.329Z,160011.75
2023-02-20T00:14:13.738Z,160003.94
2023-02-20T00:17:17.753Z,159977.84
2023-02-20T00:20:25.661Z,159970.00
2023-02-20T00:23:32.865Z,159975.25
2023-02-20T00:26:36.842Z,159970.00
2023-02-20T00:29:40.927Z,159986.97
2023-02-20T00:32:47.445Z,159989.59
2023-02-20T00:35:51.346Z,159989.59
2023-02-20T00:38:55.136Z,159984.34
2023-02-20T00:41:59.253Z,159977.84
2023-02-20T00:45:04.356Z,159968.69
2023-02-20T00:48:08.507Z,159977.84
2023-02-20T00:51:12.565Z,159986.97
2023-02-20T00:54:16.731Z,160002.59
2023-02-20T00:57:20.727Z,160003.94
2023-02-20T01:00:29.587Z,160007.84
2023-02-20T01:03:33.596Z,160018.28
2023-02-20T01:06:37.609Z,160033.94
2023-02-20T01:09:42.005Z,160032.66
2023-02-20T01:12:46.056Z,160062.63
2023-02-20T01:15:50.314Z,160056.13
2023-02-20T01:18:54.482Z,160061.34
2023-02-20T01:22:00.370Z,160090.06
2023-02-20T01:25:04.692Z,160107.03
2023-02-20T01:28:08.659Z,160140.97
2023-02-20T01:31:12.820Z,160152.75
2023-02-20T01:34:18.140Z,160173.59
2023-02-20T01:37:22.254Z,160181.44
2023-02-20T01:40:27.788Z,160210.16
2023-02-20T01:43:31.869Z,160227.16
2023-02-20T01:46:44.686Z,160233.59
2023-02-20T01:50:03.870Z,160257.13
2023-02-20T01:53:15.729Z,160255.84
2023-02-20T01:56:19.968Z,160264.97
2023-02-20T01:59:25.702Z,160254.53
2023-02-20T02:02:33.745Z,160251.94
2023-02-20T02:05:42.406Z,160248.00
2023-02-20T02:08:46.702Z,160262.38
2023-02-20T02:11:50.907Z,160254.53
2023-02-20T02:14:55.098Z,160255.84
2023-02-20T02:18:16.352Z,160262.38
2023-02-20T02:21:42.197Z,160254.53
2023-02-20T02:25:04.776Z,160264.97
2023-02-20T02:28:39.854Z,160249.28
2023-02-20T02:32:15.462Z,160254.53
2023-02-20T02:35:54.253Z,160244.09
2023-02-20T02:39:11.471Z,160233.59
2023-02-20T02:42:32.362Z,160258.44
2023-02-20T02:45:54.700Z,160246.69
2023-02-20T02:49:06.485Z,160262.38
2023-02-20T02:52:12.377Z,160272.81
2023-02-20T02:55:28.912Z,160267.56
2023-02-20T02:58:32.911Z,160262.38
2023-02-20T03:01:46.440Z,160276.72
2023-02-20T03:04:52.759Z,160285.88
2023-02-20T03:07:58.703Z,160300.19
2023-02-20T03:11:13.957Z,160314.59
2023-02-20T03:15:04.022Z,160315.88
2023-02-20T03:18:24.893Z,160306.72
2023-02-20T03:21:31.947Z,160308.03
2023-02-20T03:24:55.188Z,160311.97
2023-02-20T03:28:01.961Z,160314.59
2023-02-20T03:31:13.696Z,160331.56
2023-02-20T03:34:45.080Z,160321.13
2023-02-20T03:38:09.434Z,160345.91
2023-02-20T03:41:34.735Z,160351.16
2023-02-20T03:44:38.963Z,160364.25
2023-02-20T03:47:45.565Z,160377.22
2023-02-20T03:50:49.587Z,160385.13
2023-02-20T03:53:54.670Z,160412.53
2023-02-20T03:57:06.868Z,160408.59
2023-02-20T04:00:20.175Z,160420.38
2023-02-20T04:03:28.599Z,160409.91
2023-02-20T04:06:34.698Z,160416.44
2023-02-20T04:09:42.471Z,160432.06
2023-02-20T04:12:49.155Z,160429.47
2023-02-20T04:15:54.276Z,160437.31
2023-02-20T04:18:58.188Z,160441.25
2023-02-20T04:22:06.568Z,160469.97
2023-02-20T04:25:34.320Z,160451.69
2023-02-20T04:28:38.329Z,160451.69
2023-02-20T04:31:42.587Z,160446.50
2023-02-20T04:34:47.029Z,160458.25
2023-02-20T04:37:51.248Z,160466.03
2023-02-20T04:40:55.958Z,160447.75
2023-02-20T04:44:18.398Z,160454.34
2023-02-20T04:47:22.801Z,160467.38
2023-02-20T04:50:30.897Z,160458.25
2023-02-20T04:53:34.838Z,160468.66
2023-02-20T04:56:39.044Z,160497.38
2023-02-20T04:59:43.371Z,160479.13
2023-02-20T05:02:47.826Z,160480.47
2023-02-20T05:05:51.707Z,160480.47
2023-02-20T05:08:55.838Z,160475.22
2023-02-20T05:12:00.105Z,160477.81
2023-02-20T05:15:04.261Z,160480.47
2023-02-20T05:18:08.599Z,160481.72
2023-02-20T05:21:34.387Z,160500.03
2023-02-20T05:24:38.566Z,160466.03
2023-02-20T05:27:42.824Z,160479.13
2023-02-20T05:30:47.116Z,160481.72
2023-02-20T05:33:51.717Z,160481.72
2023-02-20T05:36:57.290Z,160473.88
2023-02-20T05:40:01.505Z,160477.81
2023-02-20T05:43:05.433Z,160497.38
2023-02-20T05:46:09.499Z,160471.28
2023-02-20T05:49:13.725Z,160486.97
2023-02-20T05:52:18.078Z,160468.66
2023-02-20T05:55:22.095Z,160467.38
2023-02-20T05:58:26.629Z,160458.25
2023-02-20T06:01:31.585Z,160467.38
2023-02-20T06:04:35.751Z,160466.03
2023-02-20T06:07:40.128Z,160455.66
2023-02-20T06:10:43.961Z,160472.56
2023-02-20T06:13:47.725Z,160466.03
2023-02-20T06:16:51.949Z,160451.69
2023-02-20T06:19:56.462Z,160456.94
2023-02-20T06:23:00.832Z,160471.28
2023-02-20T06:26:06.422Z,160476.50
2023-02-20T06:29:10.537Z,160455.66
2023-02-20T06:32:14.614Z,160460.78
2023-02-20T06:35:19.038Z,160476.50
2023-02-20T06:38:23.753Z,160476.50
2023-02-20T06:41:27.826Z,160471.28
2023-02-20T06:44:33.219Z,160496.09
2023-02-20T06:47:37.279Z,160498.69
2023-02-20T06:50:42.064Z,160510.47
2023-02-20T06:53:46.857Z,160544.44
2023-02-20T06:56:52.549Z,160520.91
2023-02-20T06:59:56.345Z,160544.44
2023-02-20T07:03:00.522Z,160549.63
2023-02-20T07:06:04.827Z,160544.44
2023-02-20T07:09:08.983Z,160531.34
2023-02-20T07:12:13.463Z,160526.16
2023-02-20T07:15:19.680Z,160552.25
2023-02-20T07:18:23.992Z,160530.09
2023-02-20T07:21:28.255Z,160517.03
2023-02-20T07:24:32.909Z,160526.16
2023-02-20T07:27:37.551Z,160541.84
2023-02-20T07:30:41.485Z,160543.13
2023-02-20T07:33:45.912Z,160567.94
2023-02-20T07:36:50.064Z,160601.91
2023-02-20T07:39:54.316Z,160637.19
2023-02-20T07:42:58.670Z,160660.72
2023-02-20T07:46:02.839Z,160680.28
2023-02-20T07:49:06.988Z,160723.41
2023-02-20T07:52:11.267Z,160739.09
2023-02-20T07:55:16.758Z,160757.41
2023-02-20T07:58:21.005Z,160779.56
2023-02-20T08:01:25.214Z,160769.19
2023-02-20T08:04:29.568Z,160784.84
2023-02-20T08:07:33.418Z,160763.94
2023-02-20T08:10:37.928Z,160763.94
2023-02-20T08:13:44.550Z,160778.31
2023-02-20T08:16:48.585Z,160795.34
2023-02-20T08:19:52.787Z,160811.00
2023-02-20T08:22:57.019Z,160829.25
2023-02-20T08:26:04.328Z,160854.06
2023-02-20T08:29:08.350Z,160847.59
2023-02-20T08:32:14.973Z,160858.00
2023-02-20T08:35:20.999Z,160850.16
2023-02-20T08:38:32.187Z,160871.09
2023-02-20T08:41:45.730Z,160876.31
2023-02-20T08:44:49.479Z,160881.56
2023-02-20T08:48:01.688Z,160899.88
2023-02-20T08:51:06.901Z,160927.28
2023-02-20T08:54:10.999Z,160918.16
2023-02-20T08:57:16.337Z,160946.94
2023-02-20T09:00:20.674Z,160952.13
2023-02-20T09:03:25.876Z,160988.75
2023-02-20T09:06:30.110Z,161010.94
2023-02-20T09:09:34.253Z,161000.50
2023-02-20T09:12:42.048Z,161042.38
2023-02-20T09:15:46.391Z,161055.44
2023-02-20T09:18:51.202Z,161089.47
2023-02-20T09:21:55.392Z,161102.47
2023-02-20T09:25:00.138Z,161103.81
2023-02-20T09:28:04.680Z,161122.13
2023-02-20T09:31:08.623Z,161144.31
2023-02-20T09:34:12.868Z,161136.50
2023-02-20T09:37:17.050Z,161153.50
2023-02-20T09:40:24.076Z,161140.38
2023-02-20T09:43:46.835Z,161149.56
2023-02-20T09:46:53.177Z,161162.63
2023-02-20T09:50:01.269Z,161174.44
2023-02-20T09:53:27.150Z,161195.34
2023-02-20T09:56:49.178Z,161239.81
2023-02-20T10:00:14.581Z,161285.59
2023-02-20T10:04:03.233Z,161305.25
2023-02-20T10:07:26.588Z,161347.06
2023-02-20T10:10:41.414Z,161345.78
2023-02-20T10:13:58.112Z,161373.25
2023-02-20T10:17:20.385Z,161411.19
2023-02-20T10:20:42.215Z,161430.81
2023-02-20T10:24:04.643Z,161447.81
2023-02-20T10:27:22.928Z,161451.75
2023-02-20T10:30:53.190Z,161474.00
2023-02-20T10:34:05.378Z,161500.16
2023-02-20T10:37:16.862Z,161542.00
2023-02-20T10:40:28.618Z,161508.03
2023-02-20T10:43:44.020Z,161515.91
2023-02-20T10:47:06.259Z,161539.41
2023-02-20T10:50:16.543Z,161528.97
2023-02-20T10:53:44.502Z,161548.59
2023-02-20T10:57:01.150Z,161547.25
2023-02-20T11:00:11.266Z,161551.19
2023-02-20T11:03:20.156Z,161576.03
2023-02-20T11:06:31.361Z,161624.50
2023-02-20T11:09:35.615Z,161632.38
2023-02-20T11:12:57.098Z,161632.38
2023-02-20T11:16:02.050Z,161661.16
2023-02-20T11:19:16.950Z,161672.91
2023-02-20T11:22:42.779Z,161675.50
2023-02-20T11:25:46.770Z,161696.47
2023-02-20T11:29:11.554Z,161716.09
2023-02-20T11:32:24.751Z,161725.28
2023-02-20T11:35:33.367Z,161692.53
2023-02-20T11:38:38.533Z,161708.22
2023-02-20T11:41:42.725Z,161720.09
2023-02-20T11:45:12.000Z,161747.53
2023-02-20T11:48:19.286Z,161751.47
2023-02-20T11:51:36.065Z,161755.41
2023-02-20T11:54:40.286Z,161797.31
2023-02-20T11:57:47.986Z,161806.47
2023-02-20T12:00:54.100Z,161813.00
2023-02-20T12:04:00.163Z,161814.34
2023-02-20T12:07:19.345Z,161809.06
2023-02-20T12:10:31.225Z,161820.81
2023-02-20T12:13:39.757Z,161799.88
2023-02-20T12:16:49.700Z,161815.63
2023-02-20T12:19:57.023Z,161807.75
2023-02-20T12:23:12.668Z,161784.16
2023-02-20T12:26:34.350Z,161775.03
2023-02-20T12:29:46.196Z,161790.72
2023-02-20T12:33:38.359Z,161806.47
2023-02-20T12:36:51.974Z,161798.66
2023-02-20T12:40:25.406Z,161782.84
2023-02-20T12:44:02.207Z,161789.44
2023-02-20T12:47:30.008Z,161802.53
2023-02-20T12:50:48.802Z,161836.53
2023-02-20T12:53:56.065Z,161862.75
2023-02-20T12:57:15.592Z,161866.69
2023-02-20T13:00:39.681Z,161865.41
2023-02-20T13:04:11.619Z,161873.22
2023-02-20T13:07:25.573Z,161916.44
2023-02-20T13:10:35.044Z,161941.28
2023-02-20T13:14:13.256Z,161955.75
2023-02-20T13:17:42.027Z,162018.63
2023-02-20T13:20:49.622Z,162040.88
2023-02-20T13:24:32.952Z,162056.56
2023-02-20T13:27:36.946Z,162038.25
2023-02-20T13:30:41.323Z,162043.47
2023-02-20T13:34:11.658Z,162056.56
2023-02-20T13:37:34.074Z,162074.94
2023-02-20T13:40:59.978Z,162097.19
2023-02-20T13:44:34.046Z,162034.31
2023-02-20T13:47:38.456Z,162048.69
2023-02-20T13:50:42.771Z,162040.88
2023-02-20T13:53:54.655Z,162033.00
2023-02-20T13:57:04.813Z,162022.56
2023-02-20T14:00:47.192Z,162014.69
2023-02-20T14:04:02.115Z,161991.09
2023-02-20T14:07:06.389Z,162014.69
2023-02-20T14:10:13.353Z,161976.69
2023-02-20T14:13:39.029Z,161959.66
2023-02-20T14:16:44.454Z,161974.06
2023-02-20T14:20:05.324Z,161957.00
2023-02-20T14:23:25.282Z,161940.00
2023-02-20T14:26:34.431Z,161936.06
2023-02-20T14:29:38.827Z,161917.78
2023-02-20T14:32:51.221Z,161950.50
2023-02-20T14:36:06.922Z,161943.94
2023-02-20T14:39:26.216Z,161957.00
2023-02-20T14:42:30.771Z,161959.66
2023-02-20T14:45:35.931Z,161967.53
2023-02-20T14:48:40.899Z,161966.19
2023-02-20T14:51:44.938Z,161957.00
2023-02-20T14:55:04.892Z,161949.16
2023-02-20T14:58:19.010Z,161936.06
2023-02-20T15:01:39.259Z,161936.06
2023-02-20T15:05:02.765Z,161909.91
2023-02-20T15:08:19.332Z,161904.69
2023-02-20T15:11:23.589Z,161894.19
2023-02-20T15:14:29.418Z,161868.03
2023-02-20T15:17:38.598Z,161870.56
2023-02-20T15:20:50.772Z,161870.56
2023-02-20T15:23:54.717Z,161847.06
2023-02-20T15:27:17.959Z,161844.44
2023-02-20T15:30:22.347Z,161833.97
2023-02-20T15:33:26.606Z,161839.19
2023-02-20T15:36:30.843Z,161839.19
2023-02-20T15:39:40.736Z,161847.06
2023-02-20T15:42:44.519Z,161853.53
2023-02-20T15:45:48.663Z,161841.78
2023-02-20T15:48:52.664Z,161831.34
2023-02-20T15:52:04.749Z,161824.75
2023-02-20T15:55:17.978Z,161823.47
2023-02-20T15:58:36.253Z,161820.81
2023-02-20T16:01:41.006Z,161832.63
2023-02-20T16:04:49.838Z,161824.75
2023-02-20T16:07:53.802Z,161840.47
2023-02-20T16:10:57.950Z,161833.97
2023-02-20T16:14:02.629Z,161836.53
2023-02-20T16:17:11.274Z,161826.09
2023-02-20T16:20:18.540Z,161837.84
2023-02-20T16:23:22.923Z,161827.44
2023-02-20T16:26:30.912Z,161789.44
2023-02-20T16:29:36.560Z,161760.66
2023-02-20T16:32:44.792Z,161734.44
2023-02-20T16:35:53.028Z,161743.63
2023-02-20T16:38:58.136Z,161724.00
2023-02-20T16:42:06.961Z,161733.13
2023-02-20T16:45:19.052Z,161747.53
2023-02-20T16:48:22.982Z,161752.78
2023-02-20T16:51:29.656Z,161760.66
2023-02-20T16:54:33.656Z,161755.41
2023-02-20T16:57:37.641Z,161747.53
2023-02-20T17:00:55.120Z,161714.81
2023-02-20T17:04:01.196Z,161703.06
2023-02-20T17:07:08.869Z,161687.31
2023-02-20T17:10:13.760Z,161666.38
2023-02-20T17:13:17.873Z,161632.38
2023-02-20T17:16:31.299Z,161610.09
2023-02-20T17:19:41.686Z,161612.72
2023-02-20T17:22:52.835Z,161570.81
2023-02-20T17:25:59.905Z,161534.19
2023-02-20T17:29:04.001Z,161519.78
2023-02-20T17:32:08.448Z,161493.63
2023-02-20T17:35:12.956Z,161509.31
2023-02-20T17:38:17.179Z,161484.44
2023-02-20T17:41:22.189Z,161479.22
2023-02-20T17:44:28.976Z,161464.81
2023-02-20T17:47:33.532Z,161477.91
2023-02-20T17:50:37.915Z,161460.88
2023-02-20T17:53:41.736Z,161454.41
2023-02-20T17:56:46.535Z,161443.88
2023-02-20T17:59:50.446Z,161436.06
2023-02-20T18:02:54.480Z,161429.53
2023-02-20T18:05:58.628Z,161417.69
2023-02-20T18:09:03.090Z,161405.94
2023-02-20T18:12:07.591Z,161400.69
2023-02-20T18:15:11.744Z,161415.13
2023-02-20T18:18:15.791Z,161391.59
2023-02-20T18:21:25.487Z,161388.94
2023-02-20T18:24:30.251Z,161400.69
2023-02-20T18:27:34.161Z,161386.34
2023-02-20T18:30:40.803Z,161360.13
2023-02-20T18:33:45.232Z,161354.97
2023-02-20T18:36:49.962Z,161358.84
2023-02-20T18:39:54.008Z,161345.78
2023-02-20T18:42:58.333Z,161353.66
2023-02-20T18:46:02.569Z,161337.91
2023-02-20T18:49:07.017Z,161320.91
2023-02-20T18:52:11.225Z,161303.94
2023-02-20T18:55:20.097Z,161292.13
2023-02-20T18:58:27.584Z,161300.00
2023-02-20T19:01:33.712Z,161292.13
2023-02-20T19:04:37.987Z,161302.59
2023-02-20T19:07:47.038Z,161298.66
2023-02-20T19:10:51.023Z,161302.59
2023-02-20T19:13:55.311Z,161300.00
2023-02-20T19:17:01.709Z,161276.41
2023-02-20T19:20:09.515Z,161272.47
2023-02-20T19:23:13.653Z,161259.47
2023-02-20T19:26:17.726Z,161266.00
2023-02-20T19:29:21.861Z,161258.13
2023-02-20T19:32:26.145Z,161241.13
2023-02-20T19:35:30.615Z,161231.94
2023-02-20T19:38:34.771Z,161241.13
2023-02-20T19:41:39.433Z,161235.88
2023-02-20T19:44:43.566Z,161216.28
2023-02-20T19:47:47.776Z,161226.75
2023-02-20T19:50:52.372Z,161248.94
2023-02-20T19:53:57.048Z,161238.53
2023-02-20T19:57:02.689Z,161229.34
2023-02-20T20:00:06.688Z,161221.53
2023-02-20T20:03:11.046Z,161201.88
2023-02-20T20:06:18.149Z,161148.25
2023-02-20T20:09:35.776Z,161124.72
2023-02-20T20:12:46.942Z,161115.59
2023-02-20T20:15:51.104Z,161115.59
2023-02-20T20:18:55.511Z,161143.03
2023-02-20T20:21:59.579Z,161118.19
2023-02-20T20:25:04.538Z,161145.63
2023-02-20T20:28:09.407Z,161158.75
2023-02-20T20:31:13.888Z,161158.75
2023-02-20T20:34:20.537Z,161145.63
2023-02-20T20:37:30.111Z,161143.03
2023-02-20T20:40:34.144Z,161119.47
2023-02-20T20:43:38.330Z,161106.41
2023-02-20T20:46:42.450Z,161118.19
2023-02-20T20:49:46.804Z,161112.97
2023-02-20T20:52:51.938Z,161132.56
2023-02-20T20:55:55.850Z,161156.09
2023-02-20T20:58:59.928Z,161180.97
2023-02-20T21:02:03.912Z,161177.03
2023-02-20T21:05:10.484Z,161167.88
2023-02-20T21:08:15.422Z,161179.69
2023-02-20T21:11:19.647Z,161177.03
2023-02-20T21:14:23.753Z,161180.97
2023-02-20T21:17:27.877Z,161201.88
2023-02-20T21:20:34.036Z,161195.34
2023-02-20T21:23:46.085Z,161177.03
2023-02-20T21:26:49.958Z,161184.88
2023-02-20T21:29:54.110Z,161197.94
2023-02-20T21:32:59.188Z,161188.81
2023-02-20T21:36:06.146Z,161192.75
2023-02-20T21:39:10.223Z,161182.28
2023-02-20T21:42:32.978Z,161194.03
2023-02-20T21:45:37.186Z,161195.34
2023-02-20T21:48:41.238Z,161196.69
2023-02-20T21:51:45.809Z,161213.66
2023-02-20T21:54:51.902Z,161226.75
2023-02-20T21:57:56.724Z,161230.63
2023-02-20T22:01:00.805Z,161228.00
2023-02-20T22:04:07.007Z,161234.59
2023-02-20T22:07:29.439Z,161217.59
2023-02-20T22:10:52.199Z,161234.59
2023-02-20T22:14:14.947Z,161228.00
2023-02-20T22:17:37.573Z,161221.53
2023-02-20T22:21:00.277Z,161224.13
2023-02-20T22:24:33.753Z,161235.88
2023-02-20T22:28:00.021Z,161235.88
2023-02-20T22:31:24.194Z,161235.88
2023-02-20T22:34:46.858Z,161226.75
2023-02-20T22:38:09.846Z,161231.94
2023-02-20T22:41:40.707Z,161229.34
2023-02-20T22:45:03.375Z,161217.59
2023-02-20T22:48:26.238Z,161237.22
2023-02-20T22:51:48.886Z,161231.94
2023-02-20T22:55:11.575Z,161229.34
2023-02-20T22:58:34.275Z,161250.28
2023-02-20T23:01:56.783Z,161233.28
2023-02-20T23:05:19.249Z,161256.81
2023-02-20T23:08:41.975Z,161235.88
2023-02-20T23:12:04.475Z,161235.88
2023-02-20T23:15:27.360Z,161248.94
2023-02-20T23:18:49.930Z,161247.66
2023-02-20T23:22:12.498Z,161254.19
2023-02-20T23:25:35.498Z,161252.88
2023-02-20T23:28:58.287Z,161239.81
2023-02-20T23:32:22.959Z,161255.47
2023-02-20T23:35:45.600Z,161258.13
2023-02-20T23:39:10.326Z,161246.38
2023-02-20T23:42:33.079Z,161258.13
2023-02-20T23:45:55.604Z,161245.06
2023-02-20T23:49:18.390Z,161242.47
2023-02-20T23:52:41.214Z,161258.13
2023-02-20T23:56:04.136Z,161251.53
2023-02-20T23:59:26.935Z,161271.19
